AAL2017 KJFK-KMIA
Flight info
| Callsign | AAL2017 |
|---|---|
| Flight time | 2h 35m |
| Altitude | 40000 |
| Route | WAVEY EMJAY Q167 KALDA Q101 SKARP Y313 HOAGG BNFSH3 |
| Aircraft | B772/H-SDE1E3FGHIJ1J3J4J5M1P2RWXYZ/AA1DCD |
Departure
| Time | 2026-05-07 21:31 |
|---|---|
| Airport | John F. Kennedy International Airport (KJFK) |
Arrival
| Time | 2026-05-08 00:06 |
|---|---|
| Airport | Miami International Airport (KMIA) |
| Time | Latitude | Longitude | Altitude | Speed | Heading |
|---|---|---|---|---|---|
| 2026-05-07 21:00 | 40.64816 | -73.79276 | 28 ft | 0 kts | 150° |
| 2026-05-07 21:16 | 40.64817 | -73.79277 | 28 ft | 1 kts | 150° |
| 2026-05-07 21:17 | 40.64830 | -73.79286 | 28 ft | 2 kts | 150° |
| 2026-05-07 21:17 | 40.64843 | -73.79296 | 28 ft | 2 kts | 158° |
| 2026-05-07 21:17 | 40.64858 | -73.79300 | 28 ft | 2 kts | 184° |
| 2026-05-07 21:17 | 40.64872 | -73.79296 | 28 ft | 2 kts | 204° |
| 2026-05-07 21:18 | 40.64885 | -73.79286 | 28 ft | 2 kts | 225° |
| 2026-05-07 21:18 | 40.64893 | -73.79271 | 28 ft | 2 kts | 244° |
| 2026-05-07 21:18 | 40.64898 | -73.79256 | 28 ft | 0 kts | 244° |
| 2026-05-07 21:18 | 40.64901 | -73.79249 | 28 ft | 0 kts | 240° |
| 2026-05-07 21:22 | 40.64896 | -73.79261 | 28 ft | 3 kts | 240° |
| 2026-05-07 21:22 | 40.64880 | -73.79299 | 28 ft | 6 kts | 240° |
| 2026-05-07 21:22 | 40.64854 | -73.79360 | 28 ft | 9 kts | 240° |
| 2026-05-07 21:23 | 40.64818 | -73.79443 | 28 ft | 11 kts | 240° |
| 2026-05-07 21:23 | 40.64776 | -73.79540 | 28 ft | 12 kts | 240° |
| 2026-05-07 21:23 | 40.64732 | -73.79648 | 28 ft | 14 kts | 242° |
| 2026-05-07 21:23 | 40.64690 | -73.79712 | 28 ft | 8 kts | 193° |
| 2026-05-07 21:24 | 40.64630 | -73.79678 | 28 ft | 11 kts | 146° |
| 2026-05-07 21:24 | 40.64557 | -73.79615 | 28 ft | 13 kts | 154° |
| 2026-05-07 21:24 | 40.64459 | -73.79591 | 28 ft | 15 kts | 176° |
| 2026-05-07 21:24 | 40.64346 | -73.79594 | 28 ft | 17 kts | 183° |
| 2026-05-07 21:25 | 40.64223 | -73.79606 | 28 ft | 18 kts | 184° |
| 2026-05-07 21:25 | 40.64092 | -73.79602 | 28 ft | 19 kts | 166° |
| 2026-05-07 21:25 | 40.63981 | -73.79498 | 28 ft | 20 kts | 125° |
| 2026-05-07 21:25 | 40.63906 | -73.79335 | 28 ft | 21 kts | 120° |
| 2026-05-07 21:26 | 40.63830 | -73.79166 | 28 ft | 21 kts | 120° |
| 2026-05-07 21:26 | 40.63750 | -73.78992 | 28 ft | 22 kts | 120° |
| 2026-05-07 21:26 | 40.63668 | -73.78811 | 28 ft | 23 kts | 120° |
| 2026-05-07 21:26 | 40.63584 | -73.78626 | 28 ft | 23 kts | 120° |
| 2026-05-07 21:27 | 40.63497 | -73.78435 | 28 ft | 24 kts | 121° |
| 2026-05-07 21:27 | 40.63408 | -73.78239 | 28 ft | 25 kts | 121° |
| 2026-05-07 21:27 | 40.63339 | -73.78079 | 28 ft | 16 kts | 110° |
| 2026-05-07 21:27 | 40.63333 | -73.77935 | 28 ft | 13 kts | 76° |
| 2026-05-07 21:28 | 40.63326 | -73.77843 | 28 ft | 11 kts | 117° |
| 2026-05-07 21:28 | 40.63282 | -73.77745 | 28 ft | 13 kts | 122° |
| 2026-05-07 21:28 | 40.63229 | -73.77631 | 28 ft | 15 kts | 120° |
| 2026-05-07 21:28 | 40.63172 | -73.77505 | 28 ft | 16 kts | 120° |
| 2026-05-07 21:29 | 40.63111 | -73.77371 | 28 ft | 17 kts | 121° |
| 2026-05-07 21:29 | 40.63046 | -73.77228 | 28 ft | 18 kts | 120° |
| 2026-05-07 21:29 | 40.62990 | -73.77107 | 28 ft | 8 kts | 129° |
| 2026-05-07 21:29 | 40.62937 | -73.77095 | 28 ft | 10 kts | 204° |
| 2026-05-07 21:30 | 40.62868 | -73.77147 | 28 ft | 12 kts | 210° |
| 2026-05-07 21:30 | 40.62818 | -73.77200 | 28 ft | 7 kts | 258° |
| 2026-05-07 21:30 | 40.62832 | -73.77248 | 28 ft | 3 kts | 300° |
| 2026-05-07 21:30 | 40.62934 | -73.77474 | 28 ft | 68 kts | 300° |
| 2026-05-07 21:31 | 40.63310 | -73.78307 | 29 ft | 140 kts | 301° |
| 2026-05-07 21:31 | 40.63886 | -73.79524 | 446 ft | 159 kts | 304° |
| 2026-05-07 21:31 | 40.64316 | -73.80814 | 1160 ft | 163 kts | 275° |
| 2026-05-07 21:31 | 40.64149 | -73.82295 | 1610 ft | 174 kts | 250° |
| 2026-05-07 21:32 | 40.63410 | -73.83665 | 1938 ft | 194 kts | 231° |
| 2026-05-07 21:32 | 40.62455 | -73.85018 | 2280 ft | 211 kts | 230° |
| 2026-05-07 21:32 | 40.61419 | -73.86462 | 2793 ft | 220 kts | 230° |
| 2026-05-07 21:32 | 40.60252 | -73.87742 | 3436 ft | 225 kts | 208° |
| 2026-05-07 21:33 | 40.58699 | -73.88111 | 4107 ft | 236 kts | 175° |
| 2026-05-07 21:33 | 40.57060 | -73.87499 | 4596 ft | 256 kts | 158° |
| 2026-05-07 21:33 | 40.55378 | -73.86518 | 5109 ft | 274 kts | 156° |
| 2026-05-07 21:33 | 40.53572 | -73.85682 | 5839 ft | 279 kts | 171° |
| 2026-05-07 21:34 | 40.51636 | -73.85335 | 6588 ft | 285 kts | 176° |
| 2026-05-07 21:34 | 40.49684 | -73.84962 | 7489 ft | 287 kts | 166° |
| 2026-05-07 21:34 | 40.47934 | -73.83690 | 8282 ft | 296 kts | 141° |
| 2026-05-07 21:34 | 40.46544 | -73.81632 | 8882 ft | 309 kts | 130° |
| 2026-05-07 21:35 | 40.45285 | -73.79334 | 9570 ft | 314 kts | 129° |
| 2026-05-07 21:35 | 40.44019 | -73.76976 | 10185 ft | 321 kts | 130° |
| 2026-05-07 21:35 | 40.42698 | -73.74540 | 10576 ft | 337 kts | 130° |
| 2026-05-07 21:35 | 40.41298 | -73.71972 | 10901 ft | 355 kts | 130° |
| 2026-05-07 21:36 | 40.39827 | -73.69279 | 11282 ft | 372 kts | 130° |
| 2026-05-07 21:36 | 40.38287 | -73.66464 | 11634 ft | 390 kts | 130° |
| 2026-05-07 21:36 | 40.36677 | -73.63524 | 12081 ft | 405 kts | 130° |
| 2026-05-07 21:36 | 40.35022 | -73.60497 | 12756 ft | 413 kts | 131° |
| 2026-05-07 21:37 | 40.33356 | -73.57451 | 13708 ft | 414 kts | 132° |
| 2026-05-07 21:37 | 40.31684 | -73.54399 | 14633 ft | 416 kts | 132° |
| 2026-05-07 21:37 | 40.29992 | -73.51318 | 15447 ft | 422 kts | 133° |
| 2026-05-07 21:37 | 40.28272 | -73.48190 | 16259 ft | 428 kts | 133° |
| 2026-05-07 21:38 | 40.26524 | -73.45014 | 17023 ft | 435 kts | 133° |
| 2026-05-07 21:38 | 40.24748 | -73.41823 | 17862 ft | 437 kts | 135° |
| 2026-05-07 21:38 | 40.22703 | -73.38918 | 18514 ft | 435 kts | 146° |
| 2026-05-07 21:38 | 40.20344 | -73.36479 | 19194 ft | 434 kts | 154° |
| 2026-05-07 21:39 | 40.17774 | -73.34509 | 20054 ft | 423 kts | 165° |
| 2026-05-07 21:39 | 40.15069 | -73.33142 | 20867 ft | 414 kts | 174° |
| 2026-05-07 21:39 | 40.12307 | -73.32369 | 21655 ft | 404 kts | 183° |
| 2026-05-07 21:39 | 40.09539 | -73.32159 | 22365 ft | 396 kts | 191° |
| 2026-05-07 21:40 | 40.06844 | -73.32498 | 23179 ft | 386 kts | 199° |
| 2026-05-07 21:40 | 40.04283 | -73.33330 | 24036 ft | 377 kts | 207° |
| 2026-05-07 21:40 | 40.01884 | -73.34601 | 24807 ft | 371 kts | 214° |
| 2026-05-07 21:40 | 39.99664 | -73.36280 | 25415 ft | 371 kts | 220° |
| 2026-05-07 21:41 | 39.97658 | -73.38356 | 26060 ft | 369 kts | 227° |
| 2026-05-07 21:41 | 39.95815 | -73.40684 | 26717 ft | 371 kts | 228° |
| 2026-05-07 21:41 | 39.93952 | -73.42988 | 27463 ft | 371 kts | 227° |
| 2026-05-07 21:41 | 39.92050 | -73.45254 | 28118 ft | 373 kts | 226° |
| 2026-05-07 21:42 | 39.90111 | -73.47504 | 28628 ft | 377 kts | 226° |
| 2026-05-07 21:42 | 39.88125 | -73.49767 | 29095 ft | 382 kts | 226° |
| 2026-05-07 21:42 | 39.86122 | -73.52025 | 29799 ft | 382 kts | 226° |
| 2026-05-07 21:42 | 39.84141 | -73.54244 | 30728 ft | 375 kts | 226° |
| 2026-05-07 21:43 | 39.82184 | -73.56437 | 31487 ft | 372 kts | 226° |
| 2026-05-07 21:43 | 39.80237 | -73.58616 | 32136 ft | 371 kts | 227° |
| 2026-05-07 21:43 | 39.78279 | -73.60802 | 32749 ft | 371 kts | 227° |
| 2026-05-07 21:43 | 39.76319 | -73.62986 | 33396 ft | 369 kts | 226° |
| 2026-05-07 21:44 | 39.74382 | -73.65139 | 34131 ft | 366 kts | 226° |
| 2026-05-07 21:44 | 39.72447 | -73.67289 | 34857 ft | 363 kts | 227° |
| 2026-05-07 21:44 | 39.70541 | -73.69404 | 35550 ft | 360 kts | 227° |
| 2026-05-07 21:44 | 39.68649 | -73.71502 | 36164 ft | 358 kts | 227° |
| 2026-05-07 21:45 | 39.66759 | -73.73597 | 36663 ft | 358 kts | 227° |
| 2026-05-07 21:45 | 39.64867 | -73.75693 | 37090 ft | 359 kts | 227° |
| 2026-05-07 21:45 | 39.62975 | -73.77786 | 37521 ft | 359 kts | 226° |
| 2026-05-07 21:45 | 39.61079 | -73.79882 | 37883 ft | 360 kts | 227° |
| 2026-05-07 21:46 | 39.59174 | -73.81986 | 38240 ft | 361 kts | 226° |
| 2026-05-07 21:46 | 39.57272 | -73.84085 | 38634 ft | 360 kts | 226° |
| 2026-05-07 21:46 | 39.55369 | -73.86183 | 39000 ft | 360 kts | 227° |
| 2026-05-07 21:46 | 39.53466 | -73.88281 | 39346 ft | 360 kts | 227° |
| 2026-05-07 21:47 | 39.51561 | -73.90378 | 39590 ft | 362 kts | 227° |
| 2026-05-07 21:47 | 39.49644 | -73.92488 | 39832 ft | 363 kts | 227° |
| 2026-05-07 21:47 | 39.45782 | -73.96733 | 39873 ft | 366 kts | 227° |
| 2026-05-07 21:48 | 39.41926 | -74.00961 | 39890 ft | 362 kts | 227° |
| 2026-05-07 21:48 | 39.38090 | -74.05161 | 39871 ft | 363 kts | 227° |
| 2026-05-07 21:49 | 39.34232 | -74.09378 | 39871 ft | 364 kts | 227° |
| 2026-05-07 21:49 | 39.30366 | -74.13595 | 39881 ft | 363 kts | 227° |
| 2026-05-07 21:50 | 39.26519 | -74.17786 | 39870 ft | 363 kts | 227° |
| 2026-05-07 21:50 | 39.22666 | -74.21978 | 39875 ft | 362 kts | 227° |
| 2026-05-07 21:51 | 39.18808 | -74.26169 | 39868 ft | 364 kts | 227° |
| 2026-05-07 21:51 | 39.14949 | -74.30354 | 39855 ft | 363 kts | 227° |
| 2026-05-07 21:52 | 39.11094 | -74.34530 | 39873 ft | 363 kts | 227° |
| 2026-05-07 21:52 | 39.07224 | -74.38715 | 39864 ft | 363 kts | 227° |
| 2026-05-07 21:53 | 39.03352 | -74.42896 | 39848 ft | 364 kts | 227° |
| 2026-05-07 21:53 | 38.99476 | -74.47076 | 39842 ft | 365 kts | 227° |
| 2026-05-07 21:54 | 38.95597 | -74.51252 | 39844 ft | 364 kts | 227° |
| 2026-05-07 21:54 | 38.91795 | -74.55490 | 39845 ft | 361 kts | 229° |
| 2026-05-07 21:55 | 38.88093 | -74.59877 | 39864 ft | 362 kts | 229° |
| 2026-05-07 21:55 | 38.84390 | -74.64228 | 39848 ft | 361 kts | 230° |
| 2026-05-07 21:56 | 38.80651 | -74.68603 | 39881 ft | 363 kts | 229° |
| 2026-05-07 21:56 | 38.76934 | -74.72940 | 39882 ft | 361 kts | 229° |
| 2026-05-07 21:57 | 38.73170 | -74.77191 | 39881 ft | 364 kts | 226° |
| 2026-05-07 21:57 | 38.69215 | -74.81261 | 39879 ft | 365 kts | 227° |
| 2026-05-07 21:58 | 38.65266 | -74.85350 | 39881 ft | 365 kts | 227° |
| 2026-05-07 21:58 | 38.61314 | -74.89451 | 39874 ft | 365 kts | 227° |
| 2026-05-07 21:59 | 38.57368 | -74.93545 | 39875 ft | 366 kts | 227° |
| 2026-05-07 21:59 | 38.53414 | -74.97643 | 39870 ft | 365 kts | 227° |
| 2026-05-07 22:00 | 38.49572 | -75.01852 | 39878 ft | 363 kts | 229° |
| 2026-05-07 22:00 | 38.45755 | -75.06105 | 39879 ft | 367 kts | 227° |
| 2026-05-07 22:01 | 38.41633 | -75.09990 | 39867 ft | 366 kts | 225° |
| 2026-05-07 22:01 | 38.37526 | -75.13849 | 39880 ft | 368 kts | 225° |
| 2026-05-07 22:02 | 38.33388 | -75.17761 | 39874 ft | 370 kts | 226° |
| 2026-05-07 22:02 | 38.29271 | -75.21656 | 39874 ft | 369 kts | 225° |
| 2026-05-07 22:03 | 38.25158 | -75.25546 | 39878 ft | 368 kts | 226° |
| 2026-05-07 22:03 | 38.21190 | -75.29296 | 39881 ft | 369 kts | 226° |
| 2026-05-07 22:04 | 38.17750 | -75.32542 | 39872 ft | 367 kts | 226° |
| 2026-05-07 22:04 | 38.13639 | -75.36420 | 39864 ft | 368 kts | 226° |
| 2026-05-07 22:05 | 38.09513 | -75.40304 | 39878 ft | 369 kts | 226° |
| 2026-05-07 22:05 | 38.05390 | -75.44179 | 39883 ft | 368 kts | 226° |
| 2026-05-07 22:06 | 38.01169 | -75.47911 | 39882 ft | 370 kts | 224° |
| 2026-05-07 22:06 | 37.96921 | -75.51594 | 39887 ft | 370 kts | 225° |
| 2026-05-07 22:07 | 37.92642 | -75.55315 | 39874 ft | 373 kts | 225° |
| 2026-05-07 22:07 | 37.88373 | -75.59020 | 39893 ft | 370 kts | 224° |
| 2026-05-07 22:08 | 37.86088 | -75.60632 | 39877 ft | 383 kts | 215° |
| 2026-05-07 22:08 | 37.83522 | -75.61738 | 39880 ft | 400 kts | 206° |
| 2026-05-07 22:08 | 37.80685 | -75.62253 | 39880 ft | 422 kts | 196° |
| 2026-05-07 22:08 | 37.77711 | -75.62120 | 39887 ft | 432 kts | 190° |
| 2026-05-07 22:09 | 37.71712 | -75.61434 | 39890 ft | 435 kts | 190° |
| 2026-05-07 22:09 | 37.68716 | -75.61284 | 39894 ft | 424 kts | 197° |
| 2026-05-07 22:09 | 37.65824 | -75.61652 | 39892 ft | 412 kts | 203° |
| 2026-05-07 22:10 | 37.60240 | -75.62832 | 39890 ft | 404 kts | 204° |
| 2026-05-07 22:10 | 37.54686 | -75.64035 | 39885 ft | 408 kts | 204° |
| 2026-05-07 22:11 | 37.49048 | -75.65251 | 39897 ft | 409 kts | 203° |
| 2026-05-07 22:11 | 37.43397 | -75.66469 | 39900 ft | 411 kts | 203° |
| 2026-05-07 22:12 | 37.37799 | -75.67669 | 39903 ft | 406 kts | 203° |
| 2026-05-07 22:12 | 37.32201 | -75.68876 | 39902 ft | 411 kts | 204° |
| 2026-05-07 22:13 | 37.26566 | -75.70085 | 39891 ft | 411 kts | 203° |
| 2026-05-07 22:13 | 37.20933 | -75.71290 | 39894 ft | 412 kts | 204° |
| 2026-05-07 22:14 | 37.15270 | -75.72502 | 39900 ft | 412 kts | 203° |
| 2026-05-07 22:14 | 37.09660 | -75.73697 | 39907 ft | 410 kts | 204° |
| 2026-05-07 22:15 | 37.04316 | -75.75616 | 39901 ft | 388 kts | 217° |
| 2026-05-07 22:15 | 36.99617 | -75.78787 | 39903 ft | 384 kts | 221° |
| 2026-05-07 22:16 | 36.94968 | -75.82018 | 39899 ft | 380 kts | 221° |
| 2026-05-07 22:16 | 36.90334 | -75.85234 | 39903 ft | 381 kts | 220° |
| 2026-05-07 22:17 | 36.85718 | -75.88430 | 39908 ft | 380 kts | 220° |
| 2026-05-07 22:17 | 36.81063 | -75.91649 | 39903 ft | 381 kts | 221° |
| 2026-05-07 22:18 | 36.74051 | -75.96488 | 39905 ft | 383 kts | 221° |
| 2026-05-07 22:19 | 36.69384 | -75.99701 | 39898 ft | 382 kts | 220° |
| 2026-05-07 22:19 | 36.64716 | -76.02913 | 39898 ft | 384 kts | 221° |
| 2026-05-07 22:20 | 36.60032 | -76.06128 | 39890 ft | 381 kts | 220° |
| 2026-05-07 22:20 | 36.55356 | -76.09337 | 39890 ft | 384 kts | 221° |
| 2026-05-07 22:21 | 36.50664 | -76.12550 | 39882 ft | 384 kts | 221° |
| 2026-05-07 22:21 | 36.45986 | -76.15748 | 39887 ft | 382 kts | 221° |
| 2026-05-07 22:22 | 36.41312 | -76.18943 | 39878 ft | 385 kts | 220° |
| 2026-05-07 22:22 | 36.36617 | -76.22143 | 39879 ft | 382 kts | 220° |
| 2026-05-07 22:23 | 36.31948 | -76.25325 | 39881 ft | 385 kts | 221° |
| 2026-05-07 22:23 | 36.27253 | -76.28515 | 39874 ft | 382 kts | 221° |
| 2026-05-07 22:24 | 36.22591 | -76.31683 | 39873 ft | 384 kts | 221° |
| 2026-05-07 22:24 | 36.17891 | -76.34872 | 39870 ft | 384 kts | 221° |
| 2026-05-07 22:25 | 36.13185 | -76.38059 | 39872 ft | 385 kts | 221° |
| 2026-05-07 22:25 | 36.08486 | -76.41237 | 39865 ft | 383 kts | 221° |
| 2026-05-07 22:26 | 36.03816 | -76.44391 | 39863 ft | 383 kts | 221° |
| 2026-05-07 22:26 | 35.99128 | -76.47555 | 39865 ft | 385 kts | 221° |
| 2026-05-07 22:27 | 35.94398 | -76.50742 | 39868 ft | 386 kts | 221° |
| 2026-05-07 22:27 | 35.89704 | -76.53898 | 39865 ft | 386 kts | 221° |
| 2026-05-07 22:28 | 35.84857 | -76.56939 | 39866 ft | 389 kts | 219° |
| 2026-05-07 22:28 | 35.79997 | -76.59921 | 39862 ft | 391 kts | 219° |
| 2026-05-07 22:29 | 35.75135 | -76.62907 | 39864 ft | 388 kts | 220° |
| 2026-05-07 22:29 | 35.70253 | -76.65911 | 39881 ft | 391 kts | 219° |
| 2026-05-07 22:30 | 35.65360 | -76.68918 | 39884 ft | 391 kts | 219° |
| 2026-05-07 22:30 | 35.60508 | -76.71893 | 39885 ft | 388 kts | 219° |
| 2026-05-07 22:31 | 35.55636 | -76.74886 | 39880 ft | 395 kts | 219° |
| 2026-05-07 22:31 | 35.50724 | -76.77892 | 39869 ft | 393 kts | 218° |
| 2026-05-07 22:32 | 35.45828 | -76.80885 | 39854 ft | 393 kts | 219° |
| 2026-05-07 22:32 | 35.40924 | -76.83880 | 39852 ft | 393 kts | 219° |
| 2026-05-07 22:33 | 35.36033 | -76.86862 | 39845 ft | 391 kts | 219° |
| 2026-05-07 22:33 | 35.31167 | -76.89826 | 39850 ft | 392 kts | 218° |
| 2026-05-07 22:34 | 35.26240 | -76.92825 | 39854 ft | 393 kts | 218° |
| 2026-05-07 22:34 | 35.21367 | -76.95822 | 39850 ft | 393 kts | 219° |
| 2026-05-07 22:35 | 35.16471 | -76.98902 | 39846 ft | 393 kts | 219° |
| 2026-05-07 22:35 | 35.11928 | -77.01752 | 39844 ft | 394 kts | 219° |
| 2026-05-07 22:36 | 35.07030 | -77.04819 | 39842 ft | 394 kts | 219° |
| 2026-05-07 22:36 | 35.02124 | -77.07884 | 39843 ft | 393 kts | 219° |
| 2026-05-07 22:37 | 34.97251 | -77.10924 | 39834 ft | 392 kts | 219° |
| 2026-05-07 22:37 | 34.92391 | -77.13952 | 39838 ft | 394 kts | 219° |
| 2026-05-07 22:38 | 34.87474 | -77.17014 | 39844 ft | 395 kts | 219° |
| 2026-05-07 22:38 | 34.82567 | -77.20064 | 39842 ft | 398 kts | 219° |
| 2026-05-07 22:39 | 34.77623 | -77.23131 | 39838 ft | 398 kts | 219° |
| 2026-05-07 22:39 | 34.72697 | -77.26181 | 39834 ft | 396 kts | 219° |
| 2026-05-07 22:40 | 34.67773 | -77.29230 | 39836 ft | 398 kts | 219° |
| 2026-05-07 22:40 | 34.62846 | -77.32274 | 39834 ft | 397 kts | 219° |
| 2026-05-07 22:41 | 34.57917 | -77.35317 | 39832 ft | 398 kts | 219° |
| 2026-05-07 22:41 | 34.52963 | -77.38371 | 39830 ft | 398 kts | 219° |
| 2026-05-07 22:42 | 34.47827 | -77.41074 | 39829 ft | 417 kts | 208° |
| 2026-05-07 22:42 | 34.42027 | -77.42367 | 39829 ft | 426 kts | 203° |
| 2026-05-07 22:43 | 34.36126 | -77.43512 | 39821 ft | 432 kts | 202° |
| 2026-05-07 22:43 | 34.30226 | -77.44653 | 39825 ft | 428 kts | 203° |
| 2026-05-07 22:44 | 34.24316 | -77.45805 | 39819 ft | 431 kts | 203° |
| 2026-05-07 22:44 | 34.18405 | -77.46956 | 39825 ft | 432 kts | 203° |
| 2026-05-07 22:45 | 34.12465 | -77.48111 | 39819 ft | 431 kts | 203° |
| 2026-05-07 22:45 | 34.06540 | -77.49262 | 39808 ft | 433 kts | 203° |
| 2026-05-07 22:46 | 34.00573 | -77.50421 | 39809 ft | 433 kts | 202° |
| 2026-05-07 22:46 | 33.94626 | -77.51574 | 39816 ft | 434 kts | 202° |
| 2026-05-07 22:47 | 33.88656 | -77.52729 | 39810 ft | 435 kts | 203° |
| 2026-05-07 22:47 | 33.82648 | -77.53893 | 39820 ft | 438 kts | 202° |
| 2026-05-07 22:48 | 33.76656 | -77.55047 | 39819 ft | 437 kts | 202° |
| 2026-05-07 22:48 | 33.70643 | -77.56206 | 39818 ft | 436 kts | 202° |
| 2026-05-07 22:49 | 33.64639 | -77.57364 | 39819 ft | 439 kts | 202° |
| 2026-05-07 22:49 | 33.58621 | -77.58537 | 39820 ft | 436 kts | 204° |
| 2026-05-07 22:50 | 33.52874 | -77.60429 | 39836 ft | 428 kts | 208° |
| 2026-05-07 22:50 | 33.47175 | -77.62433 | 39848 ft | 427 kts | 208° |
| 2026-05-07 22:51 | 33.41465 | -77.64435 | 39851 ft | 429 kts | 208° |
| 2026-05-07 22:51 | 33.35723 | -77.66444 | 39867 ft | 432 kts | 207° |
| 2026-05-07 22:52 | 33.29973 | -77.68449 | 39878 ft | 430 kts | 207° |
| 2026-05-07 22:52 | 33.24220 | -77.70454 | 39880 ft | 431 kts | 207° |
| 2026-05-07 22:53 | 33.18459 | -77.72458 | 39884 ft | 431 kts | 207° |
| 2026-05-07 22:53 | 33.12702 | -77.74459 | 39891 ft | 434 kts | 207° |
| 2026-05-07 22:54 | 33.06927 | -77.76461 | 39878 ft | 430 kts | 207° |
| 2026-05-07 22:54 | 33.01166 | -77.78459 | 39890 ft | 434 kts | 207° |
| 2026-05-07 22:55 | 32.95376 | -77.80461 | 39887 ft | 434 kts | 207° |
| 2026-05-07 22:55 | 32.89575 | -77.82465 | 39881 ft | 433 kts | 207° |
| 2026-05-07 22:56 | 32.83780 | -77.84464 | 39889 ft | 434 kts | 207° |
| 2026-05-07 22:56 | 32.77974 | -77.86465 | 39887 ft | 435 kts | 207° |
| 2026-05-07 22:57 | 32.72144 | -77.88471 | 39886 ft | 436 kts | 207° |
| 2026-05-07 22:57 | 32.66329 | -77.90467 | 39878 ft | 436 kts | 207° |
| 2026-05-07 22:58 | 32.60455 | -77.92380 | 39885 ft | 439 kts | 206° |
| 2026-05-07 22:58 | 32.54551 | -77.94288 | 39882 ft | 440 kts | 206° |
| 2026-05-07 22:59 | 32.48679 | -77.96185 | 39881 ft | 437 kts | 206° |
| 2026-05-07 22:59 | 32.42779 | -77.98095 | 39883 ft | 442 kts | 206° |
| 2026-05-07 23:00 | 32.36847 | -78.00011 | 39875 ft | 442 kts | 206° |
| 2026-05-07 23:00 | 32.30914 | -78.01925 | 39885 ft | 443 kts | 206° |
| 2026-05-07 23:01 | 32.24953 | -78.03846 | 39892 ft | 443 kts | 206° |
| 2026-05-07 23:01 | 32.18997 | -78.05762 | 39893 ft | 444 kts | 205° |
| 2026-05-07 23:02 | 32.13071 | -78.07665 | 39896 ft | 443 kts | 205° |
| 2026-05-07 23:02 | 32.07090 | -78.09588 | 39895 ft | 447 kts | 205° |
| 2026-05-07 23:03 | 32.01111 | -78.11502 | 39897 ft | 445 kts | 205° |
| 2026-05-07 23:03 | 31.95119 | -78.13421 | 39899 ft | 447 kts | 205° |
| 2026-05-07 23:04 | 31.89135 | -78.15333 | 39903 ft | 446 kts | 205° |
| 2026-05-07 23:04 | 31.83151 | -78.17243 | 39912 ft | 445 kts | 205° |
| 2026-05-07 23:05 | 31.77161 | -78.19153 | 39915 ft | 447 kts | 205° |
| 2026-05-07 23:05 | 31.71173 | -78.21059 | 39919 ft | 446 kts | 205° |
| 2026-05-07 23:06 | 31.65161 | -78.22973 | 39924 ft | 450 kts | 205° |
| 2026-05-07 23:06 | 31.59128 | -78.24887 | 39918 ft | 448 kts | 205° |
| 2026-05-07 23:07 | 31.53134 | -78.26787 | 39910 ft | 448 kts | 205° |
| 2026-05-07 23:07 | 31.47090 | -78.28703 | 39915 ft | 450 kts | 205° |
| 2026-05-07 23:08 | 31.41112 | -78.30687 | 39926 ft | 447 kts | 206° |
| 2026-05-07 23:08 | 31.35120 | -78.32704 | 39929 ft | 450 kts | 205° |
| 2026-05-07 23:09 | 31.29118 | -78.34715 | 39925 ft | 446 kts | 205° |
| 2026-05-07 23:09 | 31.23117 | -78.36724 | 39925 ft | 451 kts | 205° |
| 2026-05-07 23:10 | 31.17112 | -78.38727 | 39936 ft | 449 kts | 205° |
| 2026-05-07 23:10 | 31.11087 | -78.40736 | 39942 ft | 451 kts | 205° |
| 2026-05-07 23:11 | 31.05069 | -78.42737 | 39925 ft | 449 kts | 205° |
| 2026-05-07 23:11 | 30.99047 | -78.44740 | 39934 ft | 453 kts | 205° |
| 2026-05-07 23:12 | 30.93006 | -78.46744 | 39927 ft | 451 kts | 205° |
| 2026-05-07 23:12 | 30.86971 | -78.48743 | 39930 ft | 451 kts | 205° |
| 2026-05-07 23:13 | 30.80936 | -78.50741 | 39936 ft | 451 kts | 205° |
| 2026-05-07 23:13 | 30.74916 | -78.52730 | 39928 ft | 450 kts | 205° |
| 2026-05-07 23:14 | 30.68839 | -78.54739 | 39931 ft | 455 kts | 204° |
| 2026-05-07 23:14 | 30.62777 | -78.56735 | 39929 ft | 451 kts | 204° |
| 2026-05-07 23:15 | 30.56735 | -78.58725 | 39931 ft | 453 kts | 204° |
| 2026-05-07 23:15 | 30.50644 | -78.60729 | 39933 ft | 455 kts | 204° |
| 2026-05-07 23:16 | 30.44566 | -78.62724 | 39937 ft | 455 kts | 204° |
| 2026-05-07 23:16 | 30.38476 | -78.64721 | 39933 ft | 454 kts | 204° |
| 2026-05-07 23:17 | 30.32400 | -78.66712 | 39952 ft | 456 kts | 203° |
| 2026-05-07 23:17 | 30.26303 | -78.68706 | 39954 ft | 455 kts | 204° |
| 2026-05-07 23:18 | 30.20205 | -78.70698 | 39950 ft | 455 kts | 203° |
| 2026-05-07 23:18 | 30.14124 | -78.72682 | 39950 ft | 454 kts | 203° |
| 2026-05-07 23:19 | 30.08011 | -78.74676 | 39952 ft | 459 kts | 203° |
| 2026-05-07 23:19 | 30.01891 | -78.76665 | 39957 ft | 455 kts | 203° |
| 2026-05-07 23:20 | 29.95791 | -78.78648 | 39952 ft | 456 kts | 203° |
| 2026-05-07 23:20 | 29.89678 | -78.80633 | 39956 ft | 458 kts | 203° |
| 2026-05-07 23:21 | 29.83511 | -78.82632 | 39952 ft | 459 kts | 203° |
| 2026-05-07 23:21 | 29.77315 | -78.84409 | 39956 ft | 464 kts | 195° |
| 2026-05-07 23:22 | 29.70871 | -78.85312 | 39954 ft | 468 kts | 193° |
| 2026-05-07 23:22 | 29.64408 | -78.86177 | 39958 ft | 466 kts | 193° |
| 2026-05-07 23:23 | 29.57959 | -78.87043 | 39958 ft | 466 kts | 193° |
| 2026-05-07 23:23 | 29.51495 | -78.87911 | 39962 ft | 468 kts | 193° |
| 2026-05-07 23:24 | 29.45025 | -78.88780 | 39966 ft | 467 kts | 193° |
| 2026-05-07 23:24 | 29.38563 | -78.89647 | 39962 ft | 467 kts | 193° |
| 2026-05-07 23:25 | 29.32111 | -78.90512 | 39965 ft | 468 kts | 193° |
| 2026-05-07 23:25 | 29.25638 | -78.91379 | 39977 ft | 467 kts | 193° |
| 2026-05-07 23:26 | 29.19177 | -78.92243 | 39984 ft | 469 kts | 193° |
| 2026-05-07 23:26 | 29.12698 | -78.93108 | 39984 ft | 468 kts | 193° |
| 2026-05-07 23:27 | 29.02988 | -78.94403 | 39983 ft | 468 kts | 193° |
| 2026-05-07 23:27 | 28.96523 | -78.95264 | 39995 ft | 470 kts | 193° |
| 2026-05-07 23:28 | 28.90021 | -78.96129 | 39988 ft | 470 kts | 193° |
| 2026-05-07 23:28 | 28.83530 | -78.96991 | 39989 ft | 469 kts | 193° |
| 2026-05-07 23:29 | 28.77042 | -78.97852 | 39987 ft | 469 kts | 193° |
| 2026-05-07 23:29 | 28.70551 | -78.98712 | 39991 ft | 470 kts | 193° |
| 2026-05-07 23:30 | 28.64058 | -78.99571 | 39992 ft | 470 kts | 193° |
| 2026-05-07 23:30 | 28.57549 | -79.00432 | 39995 ft | 472 kts | 193° |
| 2026-05-07 23:31 | 28.51020 | -79.01294 | 39996 ft | 473 kts | 193° |
| 2026-05-07 23:31 | 28.44494 | -79.02153 | 39991 ft | 471 kts | 192° |
| 2026-05-07 23:32 | 28.37976 | -79.03012 | 39997 ft | 472 kts | 192° |
| 2026-05-07 23:32 | 28.31611 | -79.04491 | 40001 ft | 462 kts | 204° |
| 2026-05-07 23:33 | 28.25498 | -79.06768 | 39996 ft | 462 kts | 204° |
| 2026-05-07 23:33 | 28.19389 | -79.09052 | 39999 ft | 462 kts | 204° |
| 2026-05-07 23:34 | 28.13281 | -79.11331 | 39997 ft | 463 kts | 204° |
| 2026-05-07 23:34 | 28.07160 | -79.13610 | 39998 ft | 464 kts | 204° |
| 2026-05-07 23:35 | 28.01026 | -79.15891 | 40002 ft | 463 kts | 204° |
| 2026-05-07 23:35 | 27.94906 | -79.18163 | 40004 ft | 463 kts | 204° |
| 2026-05-07 23:36 | 27.88771 | -79.20438 | 39994 ft | 463 kts | 204° |
| 2026-05-07 23:36 | 27.82636 | -79.22711 | 39988 ft | 463 kts | 204° |
| 2026-05-07 23:37 | 27.76506 | -79.24979 | 39969 ft | 463 kts | 204° |
| 2026-05-07 23:37 | 27.73471 | -79.26098 | 39339 ft | 459 kts | 204° |
| 2026-05-07 23:37 | 27.70426 | -79.27224 | 38304 ft | 462 kts | 203° |
| 2026-05-07 23:38 | 27.67381 | -79.28348 | 37634 ft | 460 kts | 204° |
| 2026-05-07 23:38 | 27.64350 | -79.29466 | 36918 ft | 458 kts | 204° |
| 2026-05-07 23:38 | 27.61323 | -79.30582 | 36166 ft | 458 kts | 204° |
| 2026-05-07 23:38 | 27.58300 | -79.31696 | 35411 ft | 457 kts | 204° |
| 2026-05-07 23:39 | 27.55282 | -79.32808 | 34633 ft | 457 kts | 204° |
| 2026-05-07 23:39 | 27.52266 | -79.33918 | 33829 ft | 457 kts | 204° |
| 2026-05-07 23:39 | 27.49213 | -79.35044 | 33027 ft | 470 kts | 204° |
| 2026-05-07 23:39 | 27.46041 | -79.36216 | 32153 ft | 486 kts | 203° |
| 2026-05-07 23:40 | 27.42818 | -79.37400 | 31238 ft | 489 kts | 203° |
| 2026-05-07 23:40 | 27.39590 | -79.38584 | 30443 ft | 486 kts | 203° |
| 2026-05-07 23:40 | 27.36409 | -79.39747 | 29937 ft | 477 kts | 203° |
| 2026-05-07 23:40 | 27.33285 | -79.40890 | 29384 ft | 469 kts | 203° |
| 2026-05-07 23:41 | 27.30207 | -79.42016 | 28802 ft | 463 kts | 204° |
| 2026-05-07 23:41 | 27.27170 | -79.43128 | 28225 ft | 457 kts | 204° |
| 2026-05-07 23:41 | 27.24168 | -79.44226 | 27648 ft | 451 kts | 204° |
| 2026-05-07 23:41 | 27.21204 | -79.45310 | 27072 ft | 446 kts | 204° |
| 2026-05-07 23:42 | 27.18276 | -79.46381 | 26506 ft | 441 kts | 204° |
| 2026-05-07 23:42 | 27.15371 | -79.47443 | 25952 ft | 436 kts | 204° |
| 2026-05-07 23:42 | 27.12497 | -79.48493 | 25400 ft | 436 kts | 204° |
| 2026-05-07 23:42 | 27.09574 | -79.49565 | 24844 ft | 448 kts | 203° |
| 2026-05-07 23:43 | 27.06613 | -79.50647 | 24272 ft | 447 kts | 203° |
| 2026-05-07 23:43 | 27.03672 | -79.51718 | 23735 ft | 442 kts | 203° |
| 2026-05-07 23:43 | 27.00778 | -79.52770 | 23401 ft | 432 kts | 203° |
| 2026-05-07 23:43 | 26.97918 | -79.53812 | 23084 ft | 433 kts | 203° |
| 2026-05-07 23:44 | 26.95042 | -79.54861 | 22727 ft | 435 kts | 203° |
| 2026-05-07 23:44 | 26.92174 | -79.55904 | 22371 ft | 431 kts | 203° |
| 2026-05-07 23:44 | 26.89321 | -79.56942 | 22015 ft | 429 kts | 203° |
| 2026-05-07 23:44 | 26.86463 | -79.57976 | 21631 ft | 427 kts | 203° |
| 2026-05-07 23:45 | 26.83647 | -79.58992 | 21233 ft | 424 kts | 202° |
| 2026-05-07 23:45 | 26.80842 | -79.60003 | 20838 ft | 422 kts | 202° |
| 2026-05-07 23:45 | 26.78051 | -79.61009 | 20455 ft | 420 kts | 202° |
| 2026-05-07 23:45 | 26.75299 | -79.62000 | 20076 ft | 412 kts | 202° |
| 2026-05-07 23:46 | 26.72606 | -79.62968 | 19681 ft | 400 kts | 202° |
| 2026-05-07 23:46 | 26.69997 | -79.63905 | 19334 ft | 387 kts | 202° |
| 2026-05-07 23:46 | 26.67460 | -79.64817 | 19009 ft | 380 kts | 202° |
| 2026-05-07 23:46 | 26.64927 | -79.65730 | 18657 ft | 379 kts | 201° |
| 2026-05-07 23:47 | 26.62421 | -79.66632 | 18307 ft | 378 kts | 201° |
| 2026-05-07 23:47 | 26.59918 | -79.67516 | 17962 ft | 377 kts | 201° |
| 2026-05-07 23:47 | 26.57419 | -79.68390 | 17612 ft | 375 kts | 200° |
| 2026-05-07 23:47 | 26.54932 | -79.69260 | 17256 ft | 374 kts | 200° |
| 2026-05-07 23:48 | 26.52451 | -79.70127 | 16914 ft | 372 kts | 200° |
| 2026-05-07 23:48 | 26.49986 | -79.70989 | 16574 ft | 369 kts | 200° |
| 2026-05-07 23:48 | 26.47563 | -79.71917 | 16228 ft | 365 kts | 207° |
| 2026-05-07 23:48 | 26.45405 | -79.73346 | 15893 ft | 358 kts | 221° |
| 2026-05-07 23:49 | 26.43611 | -79.75240 | 15660 ft | 354 kts | 229° |
| 2026-05-07 23:49 | 26.41917 | -79.77229 | 15446 ft | 354 kts | 229° |
| 2026-05-07 23:49 | 26.40236 | -79.79241 | 15216 ft | 352 kts | 229° |
| 2026-05-07 23:49 | 26.38597 | -79.81257 | 14970 ft | 349 kts | 233° |
| 2026-05-07 23:50 | 26.37169 | -79.83411 | 14709 ft | 340 kts | 237° |
| 2026-05-07 23:50 | 26.35852 | -79.85522 | 14475 ft | 324 kts | 237° |
| 2026-05-07 23:50 | 26.34591 | -79.87550 | 14302 ft | 310 kts | 237° |
| 2026-05-07 23:50 | 26.33368 | -79.89512 | 14130 ft | 308 kts | 237° |
| 2026-05-07 23:51 | 26.32141 | -79.91478 | 13919 ft | 308 kts | 237° |
| 2026-05-07 23:51 | 26.30915 | -79.93437 | 13708 ft | 308 kts | 237° |
| 2026-05-07 23:51 | 26.29688 | -79.95396 | 13503 ft | 307 kts | 237° |
| 2026-05-07 23:51 | 26.28465 | -79.97348 | 13300 ft | 307 kts | 236° |
| 2026-05-07 23:52 | 26.27237 | -79.99306 | 13096 ft | 306 kts | 236° |
| 2026-05-07 23:52 | 26.25904 | -80.01135 | 12878 ft | 305 kts | 222° |
| 2026-05-07 23:52 | 26.24051 | -80.02308 | 12670 ft | 307 kts | 200° |
| 2026-05-07 23:52 | 26.21989 | -80.02944 | 12474 ft | 308 kts | 194° |
| 2026-05-07 23:53 | 26.19889 | -80.03447 | 12266 ft | 307 kts | 193° |
| 2026-05-07 23:53 | 26.17791 | -80.03925 | 12063 ft | 306 kts | 193° |
| 2026-05-07 23:53 | 26.15703 | -80.04399 | 11859 ft | 305 kts | 192° |
| 2026-05-07 23:53 | 26.13613 | -80.04876 | 11653 ft | 305 kts | 192° |
| 2026-05-07 23:54 | 26.11530 | -80.05351 | 11452 ft | 304 kts | 192° |
| 2026-05-07 23:54 | 26.09449 | -80.05826 | 11247 ft | 304 kts | 192° |
| 2026-05-07 23:54 | 26.07372 | -80.06300 | 11041 ft | 304 kts | 192° |
| 2026-05-07 23:54 | 26.05299 | -80.06800 | 10822 ft | 304 kts | 194° |
| 2026-05-07 23:55 | 26.03239 | -80.07346 | 10564 ft | 302 kts | 194° |
| 2026-05-07 23:55 | 26.01218 | -80.07881 | 10337 ft | 293 kts | 194° |
| 2026-05-07 23:55 | 25.99251 | -80.08395 | 10133 ft | 287 kts | 194° |
| 2026-05-07 23:55 | 25.97297 | -80.08904 | 9894 ft | 288 kts | 194° |
| 2026-05-07 23:56 | 25.95340 | -80.09412 | 9605 ft | 288 kts | 193° |
| 2026-05-07 23:56 | 25.93395 | -80.09953 | 9314 ft | 286 kts | 200° |
| 2026-05-07 23:56 | 25.91712 | -80.11088 | 9043 ft | 283 kts | 222° |
| 2026-05-07 23:56 | 25.90321 | -80.12625 | 8811 ft | 282 kts | 227° |
| 2026-05-07 23:57 | 25.88997 | -80.14248 | 8572 ft | 282 kts | 232° |
| 2026-05-07 23:57 | 25.88127 | -80.16164 | 8328 ft | 277 kts | 258° |
| 2026-05-07 23:57 | 25.87895 | -80.18268 | 8110 ft | 275 kts | 268° |
| 2026-05-07 23:57 | 25.87823 | -80.20388 | 7844 ft | 275 kts | 269° |
| 2026-05-07 23:58 | 25.87753 | -80.22541 | 7361 ft | 281 kts | 269° |
| 2026-05-07 23:58 | 25.87682 | -80.24715 | 6881 ft | 281 kts | 270° |
| 2026-05-07 23:58 | 25.87612 | -80.26872 | 6434 ft | 279 kts | 270° |
| 2026-05-07 23:58 | 25.87763 | -80.28978 | 6071 ft | 269 kts | 289° |
| 2026-05-07 23:59 | 25.88464 | -80.30853 | 5829 ft | 258 kts | 297° |
| 2026-05-07 23:59 | 25.89285 | -80.32604 | 5430 ft | 256 kts | 299° |
| 2026-05-07 23:59 | 25.90133 | -80.34346 | 4957 ft | 257 kts | 299° |
| 2026-05-07 23:59 | 25.90981 | -80.36082 | 4535 ft | 256 kts | 299° |
| 2026-05-08 00:00 | 25.91825 | -80.37815 | 4091 ft | 256 kts | 299° |
| 2026-05-08 00:00 | 25.92667 | -80.39546 | 3677 ft | 254 kts | 298° |
| 2026-05-08 00:00 | 25.93459 | -80.41300 | 3290 ft | 251 kts | 287° |
| 2026-05-08 00:00 | 25.93696 | -80.43154 | 3199 ft | 234 kts | 272° |
| 2026-05-08 00:01 | 25.93697 | -80.44896 | 3020 ft | 219 kts | 264° |
| 2026-05-08 00:01 | 25.93128 | -80.46424 | 2984 ft | 220 kts | 231° |
| 2026-05-08 00:01 | 25.91886 | -80.47348 | 2868 ft | 215 kts | 198° |
| 2026-05-08 00:01 | 25.90408 | -80.47363 | 2483 ft | 217 kts | 164° |
| 2026-05-08 00:02 | 25.89158 | -80.46542 | 2167 ft | 198 kts | 146° |
| 2026-05-08 00:02 | 25.88095 | -80.45682 | 2004 ft | 183 kts | 139° |
| 2026-05-08 00:02 | 25.87332 | -80.44593 | 1985 ft | 176 kts | 123° |
| 2026-05-08 00:02 | 25.86740 | -80.43428 | 1991 ft | 169 kts | 122° |
| 2026-05-08 00:03 | 25.86164 | -80.42302 | 1994 ft | 166 kts | 122° |
| 2026-05-08 00:03 | 25.85587 | -80.41185 | 1996 ft | 168 kts | 122° |
| 2026-05-08 00:03 | 25.85004 | -80.40051 | 1915 ft | 172 kts | 122° |
| 2026-05-08 00:03 | 25.84416 | -80.38904 | 1702 ft | 168 kts | 123° |
| 2026-05-08 00:04 | 25.83840 | -80.37792 | 1497 ft | 164 kts | 123° |
| 2026-05-08 00:04 | 25.83273 | -80.36692 | 1293 ft | 163 kts | 123° |
| 2026-05-08 00:04 | 25.82710 | -80.35600 | 1086 ft | 162 kts | 122° |
| 2026-05-08 00:04 | 25.82154 | -80.34522 | 883 ft | 160 kts | 122° |
| 2026-05-08 00:05 | 25.81606 | -80.33457 | 679 ft | 158 kts | 122° |
| 2026-05-08 00:05 | 25.81057 | -80.32405 | 466 ft | 157 kts | 122° |
| 2026-05-08 00:05 | 25.80521 | -80.31364 | 283 ft | 154 kts | 121° |
| 2026-05-08 00:05 | 25.79989 | -80.30332 | 96 ft | 153 kts | 121° |
| 2026-05-08 00:06 | 25.79472 | -80.29335 | 20 ft | 135 kts | 118° |
| 2026-05-08 00:06 | 25.79098 | -80.28602 | 20 ft | 82 kts | 119° |
| 2026-05-08 00:06 | 25.78942 | -80.28296 | 20 ft | 27 kts | 118° |
| 2026-05-08 00:06 | 25.78902 | -80.28110 | 20 ft | 19 kts | 90° |
| 2026-05-08 00:07 | 25.78904 | -80.28052 | 20 ft | 4 kts | 88° |
| 2026-05-08 00:07 | 25.78905 | -80.28027 | 20 ft | 4 kts | 87° |
| 2026-05-08 00:07 | 25.78906 | -80.28002 | 20 ft | 0 kts | 87° |
| 2026-05-08 00:07 | 25.78909 | -80.27989 | 20 ft | 2 kts | 73° |
| 2026-05-08 00:08 | 25.78926 | -80.27968 | 20 ft | 4 kts | 27° |
| 2026-05-08 00:08 | 25.78956 | -80.27973 | 20 ft | 5 kts | 323° |
| 2026-05-08 00:08 | 25.78986 | -80.28021 | 20 ft | 9 kts | 300° |
| 2026-05-08 00:08 | 25.79024 | -80.28093 | 20 ft | 12 kts | 300° |
| 2026-05-08 00:09 | 25.79070 | -80.28183 | 20 ft | 14 kts | 299° |
| 2026-05-08 00:09 | 25.79120 | -80.28280 | 20 ft | 11 kts | 299° |
| 2026-05-08 00:09 | 25.79126 | -80.28293 | 20 ft | 1 kts | 298° |
| 2026-05-08 00:09 | 25.79153 | -80.28348 | 20 ft | 13 kts | 300° |
| 2026-05-08 00:10 | 25.79222 | -80.28421 | 20 ft | 14 kts | 312° |
| 2026-05-08 00:10 | 25.79279 | -80.28522 | 20 ft | 16 kts | 299° |
| 2026-05-08 00:10 | 25.79338 | -80.28640 | 20 ft | 18 kts | 299° |
| 2026-05-08 00:10 | 25.79396 | -80.28753 | 20 ft | 12 kts | 300° |
| 2026-05-08 00:11 | 25.79452 | -80.28796 | 20 ft | 11 kts | 354° |
| 2026-05-08 00:11 | 25.79537 | -80.28801 | 20 ft | 13 kts | 357° |
| 2026-05-08 00:11 | 25.79637 | -80.28807 | 20 ft | 15 kts | 357° |
| 2026-05-08 00:11 | 25.79752 | -80.28812 | 20 ft | 17 kts | 358° |
| 2026-05-08 00:12 | 25.79869 | -80.28818 | 20 ft | 14 kts | 357° |
| 2026-05-08 00:12 | 25.79927 | -80.28790 | 20 ft | 10 kts | 69° |
| 2026-05-08 00:12 | 25.79937 | -80.28700 | 20 ft | 12 kts | 88° |
| 2026-05-08 00:12 | 25.79941 | -80.28596 | 20 ft | 14 kts | 88° |
| 2026-05-08 00:13 | 25.79947 | -80.28480 | 20 ft | 15 kts | 87° |
| 2026-05-08 00:13 | 25.79952 | -80.28353 | 20 ft | 17 kts | 88° |
| 2026-05-08 00:13 | 25.79956 | -80.28226 | 20 ft | 17 kts | 87° |
| 2026-05-08 00:13 | 25.79962 | -80.28090 | 20 ft | 18 kts | 88° |
| 2026-05-08 00:14 | 25.79967 | -80.27968 | 20 ft | 16 kts | 87° |
| 2026-05-08 00:14 | 25.79973 | -80.27838 | 20 ft | 17 kts | 88° |
| 2026-05-08 00:14 | 25.79978 | -80.27698 | 20 ft | 18 kts | 88° |
| 2026-05-08 00:14 | 25.79983 | -80.27583 | 20 ft | 8 kts | 92° |
| 2026-05-08 00:15 | 25.79941 | -80.27541 | 20 ft | 9 kts | 165° |
| 2026-05-08 00:15 | 25.79865 | -80.27533 | 20 ft | 11 kts | 178° |
| 2026-05-08 00:15 | 25.79813 | -80.27530 | 20 ft | 0 kts | 178° |
| 2026-05-08 00:15 | 25.79805 | -80.27530 | 20 ft | 0 kts | 178° |
| 2026-05-08 00:16 | 25.79800 | -80.27530 | 20 ft | 0 kts | 178° |